sensor_id;sensor_type;location;lat;lon;timestamp;P1;durP1;ratioP1;P2;durP2;ratioP2
77016;SDS011;65949;53.132;17.930;2023-06-22T00:00:57;31.30;;;24.90;;
77016;SDS011;65949;53.132;17.930;2023-06-22T00:03:32;26.40;;;20.30;;
77016;SDS011;65949;53.132;17.930;2023-06-22T00:05:58;23.80;;;17.50;;
77016;SDS011;65949;53.132;17.930;2023-06-22T00:08:25;20.90;;;16.00;;
77016;SDS011;65949;53.132;17.930;2023-06-22T00:10:51;19.70;;;14.90;;
77016;SDS011;65949;53.132;17.930;2023-06-22T00:13:18;18.80;;;13.70;;
77016;SDS011;65949;53.132;17.930;2023-06-22T00:15:45;17.70;;;13.40;;
77016;SDS011;65949;53.132;17.930;2023-06-22T00:18:12;16.40;;;12.70;;
77016;SDS011;65949;53.132;17.930;2023-06-22T00:20:39;17.70;;;12.90;;
77016;SDS011;65949;53.132;17.930;2023-06-22T00:23:06;15.90;;;11.70;;
77016;SDS011;65949;53.132;17.930;2023-06-22T00:25:38;16.60;;;12.10;;
77016;SDS011;65949;53.132;17.930;2023-06-22T00:28:07;15.10;;;12.10;;
77016;SDS011;65949;53.132;17.930;2023-06-22T00:30:35;18.40;;;12.10;;
77016;SDS011;65949;53.132;17.930;2023-06-22T00:33:02;18.40;;;12.40;;
77016;SDS011;65949;53.132;17.930;2023-06-22T00:35:28;17.40;;;12.70;;
77016;SDS011;65949;53.132;17.930;2023-06-22T00:37:56;16.30;;;12.20;;
77016;SDS011;65949;53.132;17.930;2023-06-22T00:40:31;16.80;;;11.70;;
77016;SDS011;65949;53.132;17.930;2023-06-22T00:42:58;17.20;;;12.30;;
77016;SDS011;65949;53.132;17.930;2023-06-22T00:45:26;17.30;;;11.80;;
77016;SDS011;65949;53.132;17.930;2023-06-22T00:47:54;15.60;;;12.10;;
77016;SDS011;65949;53.132;17.930;2023-06-22T00:50:23;15.20;;;11.70;;
77016;SDS011;65949;53.132;17.930;2023-06-22T00:52:52;15.80;;;11.40;;
77016;SDS011;65949;53.132;17.930;2023-06-22T00:55:22;15.60;;;11.40;;
77016;SDS011;65949;53.132;17.930;2023-06-22T00:57:49;17.90;;;12.70;;
77016;SDS011;65949;53.132;17.930;2023-06-22T01:00:17;15.00;;;11.70;;
77016;SDS011;65949;53.132;17.930;2023-06-22T01:02:46;15.70;;;11.50;;
77016;SDS011;65949;53.132;17.930;2023-06-22T01:05:14;14.90;;;11.10;;
77016;SDS011;65949;53.132;17.930;2023-06-22T01:07:42;16.60;;;11.70;;
77016;SDS011;65949;53.132;17.930;2023-06-22T01:10:22;13.20;;;10.60;;
77016;SDS011;65949;53.132;17.930;2023-06-22T01:16:03;13.50;;;9.40;;
77016;SDS011;65949;53.132;17.930;2023-06-22T01:18:34;12.80;;;9.30;;
77016;SDS011;65949;53.132;17.930;2023-06-22T01:21:04;13.60;;;9.30;;
77016;SDS011;65949;53.132;17.930;2023-06-22T01:26:06;13.50;;;8.50;;
77016;SDS011;65949;53.132;17.930;2023-06-22T01:28:45;13.30;;;8.40;;
77016;SDS011;65949;53.132;17.930;2023-06-22T01:31:18;12.80;;;8.40;;
77016;SDS011;65949;53.132;17.930;2023-06-22T01:33:48;14.60;;;8.20;;
77016;SDS011;65949;53.132;17.930;2023-06-22T01:36:18;12.00;;;7.50;;
77016;SDS011;65949;53.132;17.930;2023-06-22T01:38:47;12.10;;;7.60;;
77016;SDS011;65949;53.132;17.930;2023-06-22T01:41:19;10.60;;;7.70;;
77016;SDS011;65949;53.132;17.930;2023-06-22T01:43:47;12.40;;;8.10;;
77016;SDS011;65949;53.132;17.930;2023-06-22T01:46:15;12.90;;;8.20;;
77016;SDS011;65949;53.132;17.930;2023-06-22T01:48:46;11.00;;;8.00;;
77016;SDS011;65949;53.132;17.930;2023-06-22T01:51:13;14.60;;;8.10;;
77016;SDS011;65949;53.132;17.930;2023-06-22T01:53:40;12.70;;;8.20;;
77016;SDS011;65949;53.132;17.930;2023-06-22T01:56:07;12.90;;;8.10;;
77016;SDS011;65949;53.132;17.930;2023-06-22T01:58:35;12.70;;;8.10;;
77016;SDS011;65949;53.132;17.930;2023-06-22T02:01:24;12.30;;;8.00;;
77016;SDS011;65949;53.132;17.930;2023-06-22T02:04:08;13.20;;;8.30;;
77016;SDS011;65949;53.132;17.930;2023-06-22T02:06:41;13.00;;;8.50;;
77016;SDS011;65949;53.132;17.930;2023-06-22T02:09:12;13.60;;;8.30;;
77016;SDS011;65949;53.132;17.930;2023-06-22T02:11:42;14.40;;;9.30;;
77016;SDS011;65949;53.132;17.930;2023-06-22T02:14:12;14.70;;;9.30;;
77016;SDS011;65949;53.132;17.930;2023-06-22T02:16:40;13.10;;;9.80;;
77016;SDS011;65949;53.132;17.930;2023-06-22T02:19:08;16.00;;;9.70;;
77016;SDS011;65949;53.132;17.930;2023-06-22T02:21:35;15.30;;;9.60;;
77016;SDS011;65949;53.132;17.930;2023-06-22T02:24:01;15.50;;;9.90;;
77016;SDS011;65949;53.132;17.930;2023-06-22T02:26:29;13.60;;;9.40;;
77016;SDS011;65949;53.132;17.930;2023-06-22T02:28:57;13.40;;;9.10;;
77016;SDS011;65949;53.132;17.930;2023-06-22T02:31:23;16.40;;;9.70;;
77016;SDS011;65949;53.132;17.930;2023-06-22T02:33:57;13.60;;;9.00;;
77016;SDS011;65949;53.132;17.930;2023-06-22T02:36:25;13.20;;;8.40;;
77016;SDS011;65949;53.132;17.930;2023-06-22T02:38:53;11.50;;;7.30;;
77016;SDS011;65949;53.132;17.930;2023-06-22T02:41:22;13.60;;;8.20;;
77016;SDS011;65949;53.132;17.930;2023-06-22T02:43:49;12.60;;;7.70;;
77016;SDS011;65949;53.132;17.930;2023-06-22T02:46:19;12.80;;;7.00;;
77016;SDS011;65949;53.132;17.930;2023-06-22T02:48:46;12.20;;;7.40;;
77016;SDS011;65949;53.132;17.930;2023-06-22T02:51:13;13.10;;;7.30;;
77016;SDS011;65949;53.132;17.930;2023-06-22T02:53:41;14.90;;;7.20;;
77016;SDS011;65949;53.132;17.930;2023-06-22T02:56:11;12.50;;;7.60;;
77016;SDS011;65949;53.132;17.930;2023-06-22T02:58:39;11.20;;;6.70;;
77016;SDS011;65949;53.132;17.930;2023-06-22T03:01:08;13.20;;;6.90;;
77016;SDS011;65949;53.132;17.930;2023-06-22T03:03:37;11.30;;;6.50;;
77016;SDS011;65949;53.132;17.930;2023-06-22T03:06:04;13.00;;;6.60;;
77016;SDS011;65949;53.132;17.930;2023-06-22T03:08:30;10.80;;;6.80;;
77016;SDS011;65949;53.132;17.930;2023-06-22T03:10:57;12.20;;;7.10;;
77016;SDS011;65949;53.132;17.930;2023-06-22T03:13:24;10.70;;;6.50;;
77016;SDS011;65949;53.132;17.930;2023-06-22T03:15:50;10.60;;;6.50;;
77016;SDS011;65949;53.132;17.930;2023-06-22T03:18:17;10.00;;;6.60;;
77016;SDS011;65949;53.132;17.930;2023-06-22T03:20:43;12.80;;;7.10;;
77016;SDS011;65949;53.132;17.930;2023-06-22T03:23:10;11.80;;;6.80;;
77016;SDS011;65949;53.132;17.930;2023-06-22T03:25:37;10.30;;;6.60;;
77016;SDS011;65949;53.132;17.930;2023-06-22T03:28:04;10.20;;;6.10;;
77016;SDS011;65949;53.132;17.930;2023-06-22T03:30:31;11.50;;;7.30;;
77016;SDS011;65949;53.132;17.930;2023-06-22T03:32:57;11.90;;;6.40;;
77016;SDS011;65949;53.132;17.930;2023-06-22T03:35:26;12.90;;;6.20;;
77016;SDS011;65949;53.132;17.930;2023-06-22T03:37:53;10.90;;;5.90;;
77016;SDS011;65949;53.132;17.930;2023-06-22T03:40:20;11.90;;;5.90;;
77016;SDS011;65949;53.132;17.930;2023-06-22T03:42:47;9.40;;;6.20;;
77016;SDS011;65949;53.132;17.930;2023-06-22T03:45:13;10.20;;;6.40;;
77016;SDS011;65949;53.132;17.930;2023-06-22T03:47:41;13.20;;;6.30;;
77016;SDS011;65949;53.132;17.930;2023-06-22T03:50:08;10.70;;;6.10;;
77016;SDS011;65949;53.132;17.930;2023-06-22T03:52:35;11.20;;;6.10;;
77016;SDS011;65949;53.132;17.930;2023-06-22T03:55:02;12.30;;;5.60;;
77016;SDS011;65949;53.132;17.930;2023-06-22T03:57:28;8.90;;;6.40;;
77016;SDS011;65949;53.132;17.930;2023-06-22T03:59:57;11.40;;;6.30;;
77016;SDS011;65949;53.132;17.930;2023-06-22T04:02:24;9.40;;;5.90;;
77016;SDS011;65949;53.132;17.930;2023-06-22T04:04:52;10.50;;;6.00;;
77016;SDS011;65949;53.132;17.930;2023-06-22T04:07:18;11.60;;;6.30;;
77016;SDS011;65949;53.132;17.930;2023-06-22T04:09:45;9.60;;;5.80;;
77016;SDS011;65949;53.132;17.930;2023-06-22T04:12:12;13.00;;;6.30;;
77016;SDS011;65949;53.132;17.930;2023-06-22T04:14:38;9.90;;;5.80;;
77016;SDS011;65949;53.132;17.930;2023-06-22T04:17:05;10.40;;;6.10;;
77016;SDS011;65949;53.132;17.930;2023-06-22T04:19:31;8.70;;;5.60;;
77016;SDS011;65949;53.132;17.930;2023-06-22T04:21:58;9.70;;;7.60;;
77016;SDS011;65949;53.132;17.930;2023-06-22T04:24:25;8.60;;;5.50;;
77016;SDS011;65949;53.132;17.930;2023-06-22T04:26:52;8.00;;;6.20;;
77016;SDS011;65949;53.132;17.930;2023-06-22T04:29:21;10.40;;;6.20;;
77016;SDS011;65949;53.132;17.930;2023-06-22T04:31:55;8.90;;;6.10;;
77016;SDS011;65949;53.132;17.930;2023-06-22T04:34:24;9.10;;;6.30;;
77016;SDS011;65949;53.132;17.930;2023-06-22T04:36:54;9.40;;;6.10;;
77016;SDS011;65949;53.132;17.930;2023-06-22T04:39:21;9.20;;;6.10;;
77016;SDS011;65949;53.132;17.930;2023-06-22T04:41:48;9.60;;;6.10;;
77016;SDS011;65949;53.132;17.930;2023-06-22T04:44:15;8.40;;;6.10;;
77016;SDS011;65949;53.132;17.930;2023-06-22T04:46:53;10.70;;;6.30;;
77016;SDS011;65949;53.132;17.930;2023-06-22T04:49:24;8.50;;;6.10;;
77016;SDS011;65949;53.132;17.930;2023-06-22T04:51:59;11.80;;;7.00;;
77016;SDS011;65949;53.132;17.930;2023-06-22T04:54:27;9.40;;;6.10;;
77016;SDS011;65949;53.132;17.930;2023-06-22T04:56:54;8.80;;;6.80;;
77016;SDS011;65949;53.132;17.930;2023-06-22T04:59:24;10.10;;;7.50;;
77016;SDS011;65949;53.132;17.930;2023-06-22T05:01:59;10.30;;;6.40;;
77016;SDS011;65949;53.132;17.930;2023-06-22T05:04:29;8.90;;;5.70;;
77016;SDS011;65949;53.132;17.930;2023-06-22T05:06:59;8.10;;;5.60;;
77016;SDS011;65949;53.132;17.930;2023-06-22T05:09:26;9.90;;;5.90;;
77016;SDS011;65949;53.132;17.930;2023-06-22T05:11:53;9.50;;;5.60;;
77016;SDS011;65949;53.132;17.930;2023-06-22T05:14:20;9.20;;;6.20;;
77016;SDS011;65949;53.132;17.930;2023-06-22T05:16:46;10.90;;;6.30;;
77016;SDS011;65949;53.132;17.930;2023-06-22T05:19:13;9.70;;;6.30;;
77016;SDS011;65949;53.132;17.930;2023-06-22T05:21:40;9.20;;;5.20;;
77016;SDS011;65949;53.132;17.930;2023-06-22T05:24:06;9.20;;;5.80;;
77016;SDS011;65949;53.132;17.930;2023-06-22T05:26:33;9.40;;;5.90;;
77016;SDS011;65949;53.132;17.930;2023-06-22T05:29:01;8.60;;;5.10;;
77016;SDS011;65949;53.132;17.930;2023-06-22T05:31:29;8.80;;;5.00;;
77016;SDS011;65949;53.132;17.930;2023-06-22T05:33:56;9.90;;;5.40;;
77016;SDS011;65949;53.132;17.930;2023-06-22T05:36:23;8.90;;;5.50;;
77016;SDS011;65949;53.132;17.930;2023-06-22T05:38:52;9.70;;;5.00;;
77016;SDS011;65949;53.132;17.930;2023-06-22T05:41:19;9.90;;;5.40;;
77016;SDS011;65949;53.132;17.930;2023-06-22T05:43:46;9.40;;;4.70;;
77016;SDS011;65949;53.132;17.930;2023-06-22T05:46:12;11.50;;;5.50;;
77016;SDS011;65949;53.132;17.930;2023-06-22T05:48:39;9.40;;;5.50;;
77016;SDS011;65949;53.132;17.930;2023-06-22T05:51:06;8.40;;;4.80;;
77016;SDS011;65949;53.132;17.930;2023-06-22T05:53:32;7.60;;;4.40;;
77016;SDS011;65949;53.132;17.930;2023-06-22T05:55:59;10.20;;;6.40;;
77016;SDS011;65949;53.132;17.930;2023-06-22T05:58:25;10.00;;;4.70;;
77016;SDS011;65949;53.132;17.930;2023-06-22T06:00:52;8.00;;;4.60;;
77016;SDS011;65949;53.132;17.930;2023-06-22T06:03:19;7.30;;;4.00;;
77016;SDS011;65949;53.132;17.930;2023-06-22T06:05:45;7.00;;;4.10;;
77016;SDS011;65949;53.132;17.930;2023-06-22T06:08:12;7.20;;;4.00;;
77016;SDS011;65949;53.132;17.930;2023-06-22T06:10:39;7.00;;;3.60;;
77016;SDS011;65949;53.132;17.930;2023-06-22T06:13:05;8.20;;;4.70;;
77016;SDS011;65949;53.132;17.930;2023-06-22T06:15:33;6.90;;;3.80;;
77016;SDS011;65949;53.132;17.930;2023-06-22T06:18:00;7.10;;;3.50;;
77016;SDS011;65949;53.132;17.930;2023-06-22T06:20:30;7.00;;;3.40;;
77016;SDS011;65949;53.132;17.930;2023-06-22T06:22:57;7.50;;;3.20;;
77016;SDS011;65949;53.132;17.930;2023-06-22T06:25:24;7.40;;;3.80;;
77016;SDS011;65949;53.132;17.930;2023-06-22T06:27:51;7.50;;;3.60;;
77016;SDS011;65949;53.132;17.930;2023-06-22T06:30:18;8.70;;;3.70;;
77016;SDS011;65949;53.132;17.930;2023-06-22T06:32:45;7.00;;;3.20;;
77016;SDS011;65949;53.132;17.930;2023-06-22T06:35:13;7.60;;;3.20;;
77016;SDS011;65949;53.132;17.930;2023-06-22T06:37:43;5.90;;;2.90;;
77016;SDS011;65949;53.132;17.930;2023-06-22T06:40:12;6.30;;;3.30;;
77016;SDS011;65949;53.132;17.930;2023-06-22T06:42:40;9.00;;;3.30;;
77016;SDS011;65949;53.132;17.930;2023-06-22T06:45:19;8.30;;;3.10;;
77016;SDS011;65949;53.132;17.930;2023-06-22T06:47:49;7.90;;;3.50;;
77016;SDS011;65949;53.132;17.930;2023-06-22T06:50:16;7.80;;;3.30;;
77016;SDS011;65949;53.132;17.930;2023-06-22T06:52:44;7.70;;;3.30;;
77016;SDS011;65949;53.132;17.930;2023-06-22T06:55:11;9.50;;;3.40;;
77016;SDS011;65949;53.132;17.930;2023-06-22T06:57:38;6.20;;;2.50;;
77016;SDS011;65949;53.132;17.930;2023-06-22T07:00:06;6.70;;;2.80;;
77016;SDS011;65949;53.132;17.930;2023-06-22T07:02:40;7.00;;;3.40;;
77016;SDS011;65949;53.132;17.930;2023-06-22T07:05:08;7.20;;;3.00;;
77016;SDS011;65949;53.132;17.930;2023-06-22T07:07:36;8.20;;;3.60;;
77016;SDS011;65949;53.132;17.930;2023-06-22T07:10:03;5.80;;;2.70;;
77016;SDS011;65949;53.132;17.930;2023-06-22T07:12:33;6.20;;;2.80;;
77016;SDS011;65949;53.132;17.930;2023-06-22T07:15:02;6.20;;;3.30;;
77016;SDS011;65949;53.132;17.930;2023-06-22T07:17:36;8.10;;;3.10;;
77016;SDS011;65949;53.132;17.930;2023-06-22T07:20:03;7.80;;;3.10;;
77016;SDS011;65949;53.132;17.930;2023-06-22T07:22:35;7.90;;;3.00;;
77016;SDS011;65949;53.132;17.930;2023-06-22T07:25:02;7.40;;;3.60;;
77016;SDS011;65949;53.132;17.930;2023-06-22T07:27:36;7.90;;;3.50;;
77016;SDS011;65949;53.132;17.930;2023-06-22T07:30:04;7.80;;;3.40;;
77016;SDS011;65949;53.132;17.930;2023-06-22T07:32:32;6.90;;;3.30;;
77016;SDS011;65949;53.132;17.930;2023-06-22T07:34:58;6.50;;;3.10;;
77016;SDS011;65949;53.132;17.930;2023-06-22T07:37:25;6.70;;;3.20;;
77016;SDS011;65949;53.132;17.930;2023-06-22T07:39:54;6.50;;;3.10;;
77016;SDS011;65949;53.132;17.930;2023-06-22T07:42:27;8.60;;;3.70;;
77016;SDS011;65949;53.132;17.930;2023-06-22T07:44:59;6.30;;;3.40;;
77016;SDS011;65949;53.132;17.930;2023-06-22T07:47:26;7.80;;;3.20;;
77016;SDS011;65949;53.132;17.930;2023-06-22T07:49:55;5.80;;;3.10;;
77016;SDS011;65949;53.132;17.930;2023-06-22T07:52:27;7.80;;;3.10;;
77016;SDS011;65949;53.132;17.930;2023-06-22T07:54:55;6.60;;;3.20;;
77016;SDS011;65949;53.132;17.930;2023-06-22T07:57:21;5.80;;;2.80;;
77016;SDS011;65949;53.132;17.930;2023-06-22T07:59:48;6.40;;;3.20;;
77016;SDS011;65949;53.132;17.930;2023-06-22T08:02:15;5.90;;;3.30;;
77016;SDS011;65949;53.132;17.930;2023-06-22T08:04:41;7.10;;;3.40;;
77016;SDS011;65949;53.132;17.930;2023-06-22T08:07:08;9.20;;;3.20;;
77016;SDS011;65949;53.132;17.930;2023-06-22T08:09:35;6.40;;;3.60;;
77016;SDS011;65949;53.132;17.930;2023-06-22T08:12:03;5.40;;;2.90;;
77016;SDS011;65949;53.132;17.930;2023-06-22T08:14:29;6.60;;;3.40;;
77016;SDS011;65949;53.132;17.930;2023-06-22T08:16:56;7.50;;;3.20;;
77016;SDS011;65949;53.132;17.930;2023-06-22T08:19:23;7.70;;;3.20;;
77016;SDS011;65949;53.132;17.930;2023-06-22T08:21:50;6.80;;;2.90;;
77016;SDS011;65949;53.132;17.930;2023-06-22T08:24:16;6.90;;;3.30;;
77016;SDS011;65949;53.132;17.930;2023-06-22T08:26:43;8.40;;;4.50;;
77016;SDS011;65949;53.132;17.930;2023-06-22T08:29:09;6.10;;;3.50;;
77016;SDS011;65949;53.132;17.930;2023-06-22T08:31:37;7.50;;;3.50;;
77016;SDS011;65949;53.132;17.930;2023-06-22T08:34:03;6.70;;;3.40;;
77016;SDS011;65949;53.132;17.930;2023-06-22T08:36:30;6.80;;;3.30;;
77016;SDS011;65949;53.132;17.930;2023-06-22T08:38:59;6.50;;;3.00;;
77016;SDS011;65949;53.132;17.930;2023-06-22T08:41:27;5.70;;;3.00;;
77016;SDS011;65949;53.132;17.930;2023-06-22T08:43:54;7.10;;;3.70;;
77016;SDS011;65949;53.132;17.930;2023-06-22T08:46:22;8.70;;;3.70;;
77016;SDS011;65949;53.132;17.930;2023-06-22T08:48:51;7.90;;;3.80;;
77016;SDS011;65949;53.132;17.930;2023-06-22T08:51:17;10.00;;;3.50;;
77016;SDS011;65949;53.132;17.930;2023-06-22T08:53:44;7.50;;;3.40;;
77016;SDS011;65949;53.132;17.930;2023-06-22T08:56:11;6.30;;;3.00;;
77016;SDS011;65949;53.132;17.930;2023-06-22T08:58:38;8.00;;;3.60;;
77016;SDS011;65949;53.132;17.930;2023-06-22T09:01:04;6.80;;;3.30;;
77016;SDS011;65949;53.132;17.930;2023-06-22T09:03:31;6.60;;;3.00;;
77016;SDS011;65949;53.132;17.930;2023-06-22T09:05:59;6.40;;;3.70;;
77016;SDS011;65949;53.132;17.930;2023-06-22T09:08:25;6.50;;;3.10;;
77016;SDS011;65949;53.132;17.930;2023-06-22T09:10:52;6.20;;;3.00;;
77016;SDS011;65949;53.132;17.930;2023-06-22T09:13:19;6.90;;;3.00;;
77016;SDS011;65949;53.132;17.930;2023-06-22T09:15:45;6.90;;;3.10;;
77016;SDS011;65949;53.132;17.930;2023-06-22T09:18:13;5.30;;;2.80;;
77016;SDS011;65949;53.132;17.930;2023-06-22T09:20:39;6.00;;;3.10;;
77016;SDS011;65949;53.132;17.930;2023-06-22T09:23:06;6.90;;;3.50;;
77016;SDS011;65949;53.132;17.930;2023-06-22T09:25:33;7.70;;;2.70;;
77016;SDS011;65949;53.132;17.930;2023-06-22T09:27:59;7.80;;;3.10;;
77016;SDS011;65949;53.132;17.930;2023-06-22T09:30:26;7.30;;;2.80;;
77016;SDS011;65949;53.132;17.930;2023-06-22T09:32:52;6.60;;;2.70;;
77016;SDS011;65949;53.132;17.930;2023-06-22T09:35:19;6.30;;;2.70;;
77016;SDS011;65949;53.132;17.930;2023-06-22T09:37:46;5.90;;;2.70;;
77016;SDS011;65949;53.132;17.930;2023-06-22T09:40:12;7.10;;;3.40;;
77016;SDS011;65949;53.132;17.930;2023-06-22T09:42:42;7.10;;;3.40;;
77016;SDS011;65949;53.132;17.930;2023-06-22T09:45:09;7.30;;;2.90;;
77016;SDS011;65949;53.132;17.930;2023-06-22T09:47:36;7.10;;;3.50;;
77016;SDS011;65949;53.132;17.930;2023-06-22T09:50:02;6.00;;;3.10;;
77016;SDS011;65949;53.132;17.930;2023-06-22T09:52:29;7.60;;;2.80;;
77016;SDS011;65949;53.132;17.930;2023-06-22T09:54:56;7.10;;;3.40;;
77016;SDS011;65949;53.132;17.930;2023-06-22T09:57:23;6.80;;;3.80;;
77016;SDS011;65949;53.132;17.930;2023-06-22T09:59:49;5.80;;;2.80;;
77016;SDS011;65949;53.132;17.930;2023-06-22T10:02:16;5.80;;;3.00;;
77016;SDS011;65949;53.132;17.930;2023-06-22T10:04:43;6.00;;;3.10;;
77016;SDS011;65949;53.132;17.930;2023-06-22T10:07:10;5.90;;;2.90;;
77016;SDS011;65949;53.132;17.930;2023-06-22T10:09:36;6.40;;;2.80;;
77016;SDS011;65949;53.132;17.930;2023-06-22T10:12:03;5.80;;;2.90;;
77016;SDS011;65949;53.132;17.930;2023-06-22T10:14:30;10.80;;;3.40;;
77016;SDS011;65949;53.132;17.930;2023-06-22T10:16:56;7.20;;;3.30;;
77016;SDS011;65949;53.132;17.930;2023-06-22T10:19:23;6.20;;;2.90;;
77016;SDS011;65949;53.132;17.930;2023-06-22T10:21:49;5.80;;;3.40;;
77016;SDS011;65949;53.132;17.930;2023-06-22T10:24:16;6.90;;;2.60;;
77016;SDS011;65949;53.132;17.930;2023-06-22T10:26:43;5.50;;;3.00;;
77016;SDS011;65949;53.132;17.930;2023-06-22T10:29:10;6.20;;;2.90;;
77016;SDS011;65949;53.132;17.930;2023-06-22T10:31:36;6.50;;;3.30;;
77016;SDS011;65949;53.132;17.930;2023-06-22T10:34:03;6.40;;;3.00;;
77016;SDS011;65949;53.132;17.930;2023-06-22T10:36:29;5.70;;;2.70;;
77016;SDS011;65949;53.132;17.930;2023-06-22T10:38:56;6.80;;;2.80;;
77016;SDS011;65949;53.132;17.930;2023-06-22T10:41:25;6.00;;;3.10;;
77016;SDS011;65949;53.132;17.930;2023-06-22T10:43:52;7.30;;;3.20;;
77016;SDS011;65949;53.132;17.930;2023-06-22T10:46:18;5.80;;;3.30;;
77016;SDS011;65949;53.132;17.930;2023-06-22T10:48:45;6.50;;;2.70;;
77016;SDS011;65949;53.132;17.930;2023-06-22T10:51:12;5.30;;;2.50;;
77016;SDS011;65949;53.132;17.930;2023-06-22T10:53:38;5.80;;;2.90;;
77016;SDS011;65949;53.132;17.930;2023-06-22T10:56:05;6.30;;;2.80;;
77016;SDS011;65949;53.132;17.930;2023-06-22T10:58:31;6.10;;;3.40;;
77016;SDS011;65949;53.132;17.930;2023-06-22T11:00:58;5.70;;;2.90;;
77016;SDS011;65949;53.132;17.930;2023-06-22T11:03:25;6.40;;;2.90;;
77016;SDS011;65949;53.132;17.930;2023-06-22T11:05:52;5.90;;;2.80;;
77016;SDS011;65949;53.132;17.930;2023-06-22T11:08:18;5.80;;;3.10;;
77016;SDS011;65949;53.132;17.930;2023-06-22T11:10:45;7.90;;;3.80;;
77016;SDS011;65949;53.132;17.930;2023-06-22T11:13:11;7.30;;;3.20;;
77016;SDS011;65949;53.132;17.930;2023-06-22T11:15:38;6.10;;;2.70;;
77016;SDS011;65949;53.132;17.930;2023-06-22T11:18:05;5.90;;;3.00;;
77016;SDS011;65949;53.132;17.930;2023-06-22T11:20:33;6.30;;;2.70;;
77016;SDS011;65949;53.132;17.930;2023-06-22T11:23:04;6.80;;;3.20;;
77016;SDS011;65949;53.132;17.930;2023-06-22T11:25:33;6.20;;;2.80;;
77016;SDS011;65949;53.132;17.930;2023-06-22T11:28:04;6.70;;;3.10;;
77016;SDS011;65949;53.132;17.930;2023-06-22T11:30:31;7.00;;;2.80;;
77016;SDS011;65949;53.132;17.930;2023-06-22T11:32:58;5.50;;;3.70;;
77016;SDS011;65949;53.132;17.930;2023-06-22T11:35:25;6.00;;;3.00;;
77016;SDS011;65949;53.132;17.930;2023-06-22T11:37:52;5.50;;;2.90;;
77016;SDS011;65949;53.132;17.930;2023-06-22T11:40:19;6.80;;;2.70;;
77016;SDS011;65949;53.132;17.930;2023-06-22T11:42:46;7.00;;;3.40;;
77016;SDS011;65949;53.132;17.930;2023-06-22T11:45:12;6.10;;;2.80;;
77016;SDS011;65949;53.132;17.930;2023-06-22T11:47:39;6.20;;;2.70;;
77016;SDS011;65949;53.132;17.930;2023-06-22T11:50:06;7.20;;;2.90;;
77016;SDS011;65949;53.132;17.930;2023-06-22T11:52:33;5.40;;;2.30;;
77016;SDS011;65949;53.132;17.930;2023-06-22T11:55:02;7.60;;;3.10;;
77016;SDS011;65949;53.132;17.930;2023-06-22T11:57:35;7.30;;;3.10;;
77016;SDS011;65949;53.132;17.930;2023-06-22T12:00:03;5.40;;;2.90;;
77016;SDS011;65949;53.132;17.930;2023-06-22T12:02:42;7.00;;;2.80;;
77016;SDS011;65949;53.132;17.930;2023-06-22T12:05:09;7.20;;;2.70;;
77016;SDS011;65949;53.132;17.930;2023-06-22T12:07:37;11.00;;;3.00;;
77016;SDS011;65949;53.132;17.930;2023-06-22T12:10:04;5.90;;;3.30;;
77016;SDS011;65949;53.132;17.930;2023-06-22T12:12:31;6.50;;;3.00;;
77016;SDS011;65949;53.132;17.930;2023-06-22T12:14:58;6.40;;;3.30;;
77016;SDS011;65949;53.132;17.930;2023-06-22T12:17:29;7.20;;;2.80;;
77016;SDS011;65949;53.132;17.930;2023-06-22T12:19:56;6.90;;;3.10;;
77016;SDS011;65949;53.132;17.930;2023-06-22T12:22:23;6.20;;;3.40;;
77016;SDS011;65949;53.132;17.930;2023-06-22T12:24:49;7.80;;;3.60;;
77016;SDS011;65949;53.132;17.930;2023-06-22T12:27:16;5.40;;;2.40;;
77016;SDS011;65949;53.132;17.930;2023-06-22T12:29:47;6.40;;;2.60;;
77016;SDS011;65949;53.132;17.930;2023-06-22T12:32:14;7.70;;;3.00;;
77016;SDS011;65949;53.132;17.930;2023-06-22T12:34:44;6.00;;;3.00;;
77016;SDS011;65949;53.132;17.930;2023-06-22T12:37:10;7.90;;;3.20;;
77016;SDS011;65949;53.132;17.930;2023-06-22T12:39:37;5.30;;;2.80;;
77016;SDS011;65949;53.132;17.930;2023-06-22T12:42:08;6.10;;;2.70;;
77016;SDS011;65949;53.132;17.930;2023-06-22T12:44:37;7.00;;;3.10;;
77016;SDS011;65949;53.132;17.930;2023-06-22T12:47:07;6.90;;;2.80;;
77016;SDS011;65949;53.132;17.930;2023-06-22T12:49:37;7.40;;;3.70;;
77016;SDS011;65949;53.132;17.930;2023-06-22T12:52:13;5.90;;;2.80;;
77016;SDS011;65949;53.132;17.930;2023-06-22T12:54:40;5.60;;;2.70;;
77016;SDS011;65949;53.132;17.930;2023-06-22T12:57:06;6.40;;;3.30;;
77016;SDS011;65949;53.132;17.930;2023-06-22T12:59:33;6.90;;;3.40;;
77016;SDS011;65949;53.132;17.930;2023-06-22T13:01:59;9.30;;;3.10;;
77016;SDS011;65949;53.132;17.930;2023-06-22T13:04:26;6.40;;;3.30;;
77016;SDS011;65949;53.132;17.930;2023-06-22T13:06:53;7.10;;;3.00;;
77016;SDS011;65949;53.132;17.930;2023-06-22T13:09:19;6.40;;;3.30;;
77016;SDS011;65949;53.132;17.930;2023-06-22T13:11:46;6.60;;;3.90;;
77016;SDS011;65949;53.132;17.930;2023-06-22T13:14:12;24.50;;;4.80;;
77016;SDS011;65949;53.132;17.930;2023-06-22T13:16:39;6.30;;;3.10;;
77016;SDS011;65949;53.132;17.930;2023-06-22T13:19:06;7.00;;;3.20;;
77016;SDS011;65949;53.132;17.930;2023-06-22T13:21:32;6.70;;;3.90;;
77016;SDS011;65949;53.132;17.930;2023-06-22T13:24:00;6.60;;;3.70;;
77016;SDS011;65949;53.132;17.930;2023-06-22T13:26:27;6.80;;;3.10;;
77016;SDS011;65949;53.132;17.930;2023-06-22T13:28:57;5.60;;;3.30;;
77016;SDS011;65949;53.132;17.930;2023-06-22T13:31:23;5.70;;;3.30;;
77016;SDS011;65949;53.132;17.930;2023-06-22T13:33:50;5.90;;;3.10;;
77016;SDS011;65949;53.132;17.930;2023-06-22T13:36:18;6.30;;;3.40;;
77016;SDS011;65949;53.132;17.930;2023-06-22T13:38:45;6.10;;;3.40;;
77016;SDS011;65949;53.132;17.930;2023-06-22T13:41:12;20.80;;;4.30;;
77016;SDS011;65949;53.132;17.930;2023-06-22T13:43:39;9.30;;;3.60;;
77016;SDS011;65949;53.132;17.930;2023-06-22T13:46:06;8.30;;;3.40;;
77016;SDS011;65949;53.132;17.930;2023-06-22T13:48:32;5.30;;;3.10;;
77016;SDS011;65949;53.132;17.930;2023-06-22T13:50:59;6.00;;;3.40;;
77016;SDS011;65949;53.132;17.930;2023-06-22T13:53:25;5.60;;;3.30;;
77016;SDS011;65949;53.132;17.930;2023-06-22T13:55:52;6.10;;;2.90;;
77016;SDS011;65949;53.132;17.930;2023-06-22T13:58:19;6.30;;;3.20;;
77016;SDS011;65949;53.132;17.930;2023-06-22T14:00:48;7.60;;;4.00;;
77016;SDS011;65949;53.132;17.930;2023-06-22T14:03:15;7.20;;;3.60;;
77016;SDS011;65949;53.132;17.930;2023-06-22T14:05:43;6.80;;;3.20;;
77016;SDS011;65949;53.132;17.930;2023-06-22T14:08:09;6.00;;;2.70;;
77016;SDS011;65949;53.132;17.930;2023-06-22T14:10:36;8.50;;;3.50;;
77016;SDS011;65949;53.132;17.930;2023-06-22T14:13:02;6.20;;;3.30;;
77016;SDS011;65949;53.132;17.930;2023-06-22T14:15:32;5.20;;;2.80;;
77016;SDS011;65949;53.132;17.930;2023-06-22T14:17:59;8.20;;;3.50;;
77016;SDS011;65949;53.132;17.930;2023-06-22T14:20:25;6.10;;;3.20;;
77016;SDS011;65949;53.132;17.930;2023-06-22T14:22:52;5.50;;;3.30;;
77016;SDS011;65949;53.132;17.930;2023-06-22T14:25:18;5.80;;;3.40;;
77016;SDS011;65949;53.132;17.930;2023-06-22T14:27:45;6.30;;;3.20;;
77016;SDS011;65949;53.132;17.930;2023-06-22T14:30:11;6.40;;;3.30;;
77016;SDS011;65949;53.132;17.930;2023-06-22T14:32:38;6.70;;;3.30;;
77016;SDS011;65949;53.132;17.930;2023-06-22T14:35:05;6.60;;;3.60;;
77016;SDS011;65949;53.132;17.930;2023-06-22T14:37:32;6.30;;;3.50;;